Time;durP1;ratioP1;P1;durP2;ratioP2;P2;SDS_P1;SDS_P2;PMS_P1;PMS_P2;Temp;Humidity;BMP_temperature;BMP_pressure;BME280_temperature;BME280_humidity;BME280_pressure;Samples;Min_cycle;Max_cycle;Signal;HPM_P1;HPM_P2
2023/06/15 00:02:11;;;;;;;5.32;3.38;;;20.90;93.90;;;;;;5101409;28;20032;-84
2023/06/15 00:04:39;;;;;;;7.90;3.70;;;20.90;93.60;;;;;;5103075;28;20396;-83
2023/06/15 00:07:05;;;;;;;5.93;3.70;;;20.90;93.80;;;;;;5107527;28;20036;-81
2023/06/15 00:09:30;;;;;;;7.93;3.85;;;20.90;93.70;;;;;;5098363;28;20066;-84
2023/06/15 00:11:56;;;;;;;6.13;3.53;;;20.90;93.70;;;;;;5098063;28;20393;-85
2023/06/15 00:14:22;;;;;;;11.50;3.92;;;20.90;93.70;;;;;;5097949;28;20032;-85
2023/06/15 00:16:52;;;;;;;9.18;3.40;;;20.90;93.70;;;;;;5096860;28;20397;-85
2023/06/15 00:19:21;;;;;;;8.25;3.65;;;20.90;93.80;;;;;;5097602;28;20506;-83
2023/06/15 00:21:48;;;;;;;5.78;3.30;;;20.90;93.90;;;;;;5097279;28;20507;-86
2023/06/15 00:24:14;;;;;;;6.60;3.58;;;20.90;93.80;;;;;;5099260;28;20039;-86
2023/06/15 00:26:42;;;;;;;6.05;3.42;;;20.90;94.00;;;;;;5109683;28;20034;-84
2023/06/15 00:29:07;;;;;;;10.07;3.55;;;20.90;93.80;;;;;;5117673;28;20040;-84
2023/06/15 00:31:34;;;;;;;8.88;3.33;;;21.00;93.80;;;;;;5107124;28;20177;-83
2023/06/15 00:34:01;;;;;;;8.77;3.25;;;20.90;93.80;;;;;;5099213;28;20024;-84
2023/06/15 00:36:26;;;;;;;7.93;3.75;;;20.90;93.80;;;;;;5103808;28;20032;-85
2023/06/15 00:38:52;;;;;;;10.10;3.90;;;21.00;94.00;;;;;;5097795;28;20385;-85
2023/06/15 00:41:18;;;;;;;8.13;3.33;;;20.90;94.00;;;;;;5096519;28;20504;-84
2023/06/15 00:43:43;;;;;;;7.45;3.25;;;21.00;94.00;;;;;;5094774;28;20107;-85
2023/06/15 00:46:10;;;;;;;8.18;3.80;;;21.10;93.90;;;;;;5096380;28;20039;-85
2023/06/15 00:48:36;;;;;;;7.53;3.20;;;21.10;93.70;;;;;;5096259;28;20024;-84
2023/06/15 00:51:03;;;;;;;6.30;3.00;;;21.00;93.70;;;;;;5094503;28;20036;-84
2023/06/15 00:53:29;;;;;;;6.82;3.10;;;21.00;93.80;;;;;;5096071;28;20032;-84
2023/06/15 00:55:55;;;;;;;9.32;3.20;;;21.00;93.70;;;;;;5095846;28;20451;-83
2023/06/15 00:58:21;;;;;;;9.80;3.42;;;20.90;93.70;;;;;;5096279;28;20032;-85
2023/06/15 01:00:49;;;;;;;10.82;3.05;;;20.90;93.70;;;;;;5100293;28;20028;-82
2023/06/15 01:03:15;;;;;;;10.20;2.97;;;20.90;93.80;;;;;;5111184;28;20055;-83
2023/06/15 01:05:44;;;;;;;6.63;2.97;;;20.90;93.80;;;;;;5095879;28;20361;-84
2023/06/15 01:08:14;;;;;;;8.05;3.33;;;20.80;93.70;;;;;;5095987;28;20036;-84
2023/06/15 01:10:41;;;;;;;5.25;2.92;;;20.90;93.80;;;;;;5103560;28;20067;-84
2023/06/15 01:13:12;;;;;;;8.52;3.08;;;20.80;93.80;;;;;;5098213;28;20050;-84
2023/06/15 01:15:38;;;;;;;6.28;3.00;;;20.80;93.80;;;;;;5095950;28;20067;-85
2023/06/15 01:18:05;;;;;;;9.80;3.80;;;20.80;93.80;;;;;;5095771;28;20058;-82
2023/06/15 01:20:38;;;;;;;17.73;8.07;;;20.80;93.80;;;;;;5095414;28;20063;-85
2023/06/15 01:23:13;;;;;;;;;;;20.80;93.80;;;;;;5095641;28;20481;-84
2023/06/15 01:25:45;;;;;;;9.80;3.88;;;20.80;94.00;;;;;;5094739;28;20296;-83
2023/06/15 01:28:15;;;;;;;9.02;3.47;;;20.70;93.90;;;;;;5099097;28;20378;-83
2023/06/15 01:30:46;;;;;;;7.13;3.00;;;20.70;94.00;;;;;;5096007;28;20036;-82
2023/06/15 01:33:12;;;;;;;6.07;3.00;;;20.60;94.10;;;;;;5094524;28;20188;-83
2023/06/15 01:35:38;;;;;;;9.82;3.25;;;20.60;94.10;;;;;;5095425;28;20109;-85
2023/06/15 01:38:04;;;;;;;7.88;2.70;;;20.70;94.10;;;;;;5095252;28;20036;-84
2023/06/15 01:40:32;;;;;;;8.15;3.00;;;20.70;94.10;;;;;;5095091;28;20086;-83
2023/06/15 01:42:59;;;;;;;11.52;3.38;;;20.70;94.00;;;;;;5095036;28;20035;-85
2023/06/15 01:45:26;;;;;;;7.60;2.78;;;20.70;94.10;;;;;;5095385;28;20039;-85
2023/06/15 01:47:52;;;;;;;8.43;3.30;;;20.70;94.10;;;;;;5095101;28;20036;-84
2023/06/15 01:50:18;;;;;;;5.53;2.97;;;20.80;94.10;;;;;;5094695;28;20031;-82
2023/06/15 01:52:44;;;;;;;8.45;3.55;;;20.80;94.20;;;;;;5095173;28;20060;-84
2023/06/15 01:55:11;;;;;;;10.55;3.40;;;20.70;94.20;;;;;;5094542;28;20119;-84
2023/06/15 01:57:38;;;;;;;8.23;3.40;;;20.70;94.20;;;;;;5094886;28;20028;-83
2023/06/15 02:00:10;;;;;;;12.13;3.50;;;20.70;94.30;;;;;;5094985;28;20032;-85
2023/06/15 02:02:37;;;;;;;8.75;3.40;;;20.80;94.40;;;;;;5094741;28;20050;-84
2023/06/15 02:05:05;;;;;;;7.82;3.22;;;20.80;94.30;;;;;;5101002;28;20533;-85
2023/06/15 02:07:32;;;;;;;6.80;3.17;;;20.80;94.40;;;;;;5116579;28;20088;-83
2023/06/15 02:09:58;;;;;;;7.10;3.20;;;20.70;94.40;;;;;;5108349;28;20401;-83
2023/06/15 02:12:23;;;;;;;8.25;2.85;;;20.70;94.50;;;;;;5112426;28;20099;-83
2023/06/15 02:14:49;;;;;;;6.40;2.88;;;20.70;94.50;;;;;;5101515;28;20542;-84
2023/06/15 02:17:17;;;;;;;5.55;3.28;;;20.80;94.50;;;;;;5095497;28;20050;-83
2023/06/15 02:19:47;;;;;;;6.80;3.22;;;20.90;94.50;;;;;;5101050;28;20105;-83
2023/06/15 02:22:15;;;;;;;6.38;3.45;;;20.80;94.40;;;;;;5100628;28;20036;-83
2023/06/15 02:24:42;;;;;;;6.97;2.85;;;20.80;94.40;;;;;;5096459;28;20020;-83
2023/06/15 02:27:08;;;;;;;8.65;3.05;;;20.80;94.70;;;;;;5099129;28;20043;-84
2023/06/15 02:29:34;;;;;;;9.40;3.00;;;20.90;94.40;;;;;;5102864;28;20026;-84
2023/06/15 02:32:00;;;;;;;7.18;3.15;;;20.90;94.40;;;;;;5095420;28;20470;-83
2023/06/15 02:34:26;;;;;;;5.13;2.97;;;20.90;94.40;;;;;;5095217;28;20382;-84
2023/06/15 02:36:53;;;;;;;8.68;2.90;;;20.80;94.40;;;;;;5099330;28;20075;-82
2023/06/15 02:39:22;;;;;;;7.03;3.10;;;20.90;94.40;;;;;;5110570;28;20032;-83
2023/06/15 02:41:48;;;;;;;4.93;2.90;;;20.90;94.40;;;;;;5099639;28;20119;-85
2023/06/15 02:44:17;;;;;;;9.25;3.60;;;20.90;94.30;;;;;;5095631;28;20070;-84
2023/06/15 02:46:43;;;;;;;6.78;3.40;;;20.90;94.20;;;;;;5094404;28;20173;-84
2023/06/15 02:49:09;;;;;;;5.43;3.20;;;20.90;94.30;;;;;;5094390;28;20051;-85
2023/06/15 02:51:37;;;;;;;9.10;3.67;;;20.90;94.30;;;;;;5094023;28;20632;-85
2023/06/15 02:54:05;;;;;;;6.70;3.78;;;20.80;94.30;;;;;;5094137;28;20036;-85
2023/06/15 02:56:34;;;;;;;9.73;4.30;;;20.70;94.40;;;;;;5092746;28;20059;-85
2023/06/15 02:59:01;;;;;;;8.52;3.83;;;20.70;94.60;;;;;;5093542;28;20043;-85
2023/06/15 03:01:37;;;;;;;14.10;4.53;;;20.70;94.60;;;;;;5098207;28;20044;-83
2023/06/15 03:04:09;;;;;;;8.90;4.68;;;20.70;94.70;;;;;;5099225;28;20449;-85
2023/06/15 03:06:38;;;;;;;10.07;4.40;;;20.60;94.70;;;;;;5094668;28;20112;-84
2023/06/15 03:09:06;;;;;;;8.60;3.92;;;20.60;94.90;;;;;;5100101;28;20028;-84
2023/06/15 03:11:32;;;;;;;8.85;4.00;;;20.60;94.80;;;;;;5112173;28;20066;-80
2023/06/15 03:13:58;;;;;;;8.77;4.38;;;20.60;94.90;;;;;;5104343;28;20111;-84
2023/06/15 03:16:25;;;;;;;10.48;4.07;;;20.60;94.90;;;;;;5094343;28;20032;-84
2023/06/15 03:18:52;;;;;;;8.02;4.78;;;20.60;95.00;;;;;;5094739;28;20032;-85
2023/06/15 03:21:22;;;;;;;7.38;4.72;;;20.60;95.00;;;;;;5093980;28;20119;-85
2023/06/15 03:23:49;;;;;;;11.32;5.30;;;20.60;95.10;;;;;;5093752;28;20081;-84
2023/06/15 03:26:16;;;;;;;15.73;5.18;;;20.60;95.10;;;;;;5094140;28;20370;-84
2023/06/15 03:28:43;;;;;;;10.90;5.03;;;20.60;95.10;;;;;;5095303;28;20043;-85
2023/06/15 03:31:10;;;;;;;10.18;4.75;;;20.60;95.30;;;;;;5096222;28;20034;-85
2023/06/15 03:33:36;;;;;;;10.00;4.40;;;20.50;95.30;;;;;;5094950;28;20024;-85
2023/06/15 03:36:03;;;;;;;13.00;4.88;;;20.60;95.30;;;;;;5095110;28;20145;-85
2023/06/15 03:38:28;;;;;;;9.40;5.30;;;20.50;95.30;;;;;;5093636;28;20055;-85
2023/06/15 03:40:54;;;;;;;9.15;5.10;;;20.50;95.40;;;;;;5093779;28;20429;-85
2023/06/15 03:43:20;;;;;;;7.35;4.97;;;20.50;95.50;;;;;;5095760;28;20111;-86
2023/06/15 03:45:46;;;;;;;13.18;5.53;;;20.50;95.40;;;;;;5097620;28;20071;-83
2023/06/15 03:48:11;;;;;;;7.85;4.75;;;20.40;95.40;;;;;;5107231;28;20098;-84
2023/06/15 03:50:37;;;;;;;12.07;5.00;;;20.50;95.60;;;;;;5096156;28;20099;-85
2023/06/15 03:53:03;;;;;;;8.45;5.05;;;20.50;95.60;;;;;;5092700;28;20040;-85
2023/06/15 03:55:29;;;;;;;7.47;4.90;;;20.50;95.60;;;;;;5094154;28;20403;-86
2023/06/15 03:57:55;;;;;;;12.52;5.93;;;20.60;95.70;;;;;;5094076;28;20433;-85
2023/06/15 04:00:20;;;;;;;9.95;5.25;;;20.60;95.60;;;;;;5093736;28;20024;-87
2023/06/15 04:02:46;;;;;;;10.88;6.18;;;20.60;95.60;;;;;;5093414;28;20036;-84
2023/06/15 04:05:12;;;;;;;10.32;5.85;;;20.60;95.50;;;;;;5094234;28;20036;-85
2023/06/15 04:07:39;;;;;;;12.23;6.03;;;20.60;95.50;;;;;;5094795;28;20043;-84
2023/06/15 04:10:08;;;;;;;13.30;5.78;;;20.60;95.60;;;;;;5104115;28;20104;-85
2023/06/15 04:12:33;;;;;;;9.30;5.68;;;20.60;95.60;;;;;;5106349;28;20393;-84
2023/06/15 04:14:59;;;;;;;14.65;6.00;;;20.60;95.60;;;;;;5110653;28;20107;-84
2023/06/15 04:17:25;;;;;;;10.25;6.25;;;20.60;95.60;;;;;;5114107;28;20171;-86
2023/06/15 04:19:51;;;;;;;11.43;6.07;;;20.70;95.70;;;;;;5097521;28;20504;-85
2023/06/15 04:22:16;;;;;;;12.15;6.00;;;20.60;95.70;;;;;;5097722;28;20343;-86
2023/06/15 04:24:42;;;;;;;9.27;5.70;;;20.60;95.70;;;;;;5106857;28;20398;-83
2023/06/15 04:27:12;;;;;;;10.27;5.35;;;20.60;95.70;;;;;;5106956;28;20040;-85
2023/06/15 04:29:45;;;;;;;11.50;5.60;;;20.60;95.80;;;;;;5097088;28;20509;-86
2023/06/15 04:32:14;;;;;;;9.75;6.60;;;20.60;95.70;;;;;;5097749;28;20051;-86
2023/06/15 04:34:45;;;;;;;10.93;5.97;;;20.60;95.70;;;;;;5107851;28;20035;-83
2023/06/15 04:37:13;;;;;;;8.85;5.40;;;20.60;95.70;;;;;;5099080;28;20050;-86
2023/06/15 04:39:39;;;;;;;12.43;5.60;;;20.60;95.70;;;;;;5098903;28;20024;-85
2023/06/15 04:42:08;;;;;;;10.27;5.60;;;20.60;95.80;;;;;;5097273;28;20040;-86
2023/06/15 04:44:35;;;;;;;9.27;5.63;;;20.60;95.90;;;;;;5097421;28;20031;-86
2023/06/15 04:47:02;;;;;;;8.18;5.03;;;20.60;95.80;;;;;;5100882;28;20036;-85
2023/06/15 04:49:28;;;;;;;10.57;5.35;;;20.50;95.70;;;;;;5116727;28;20024;-81
2023/06/15 04:51:53;;;;;;;11.32;5.22;;;20.50;95.70;;;;;;5113572;28;20063;-83
2023/06/15 04:54:19;;;;;;;14.25;5.82;;;20.50;95.70;;;;;;5114359;28;20039;-83
2023/06/15 04:56:45;;;;;;;9.70;5.10;;;20.50;95.60;;;;;;5111775;28;20105;-84
2023/06/15 04:59:11;;;;;;;9.63;5.40;;;20.50;95.60;;;;;;5098834;28;20082;-86
2023/06/15 05:01:36;;;;;;;9.27;5.40;;;20.50;95.60;;;;;;5100232;28;20540;-85
2023/06/15 05:04:02;;;;;;;10.70;5.60;;;20.50;95.60;;;;;;5102386;28;20028;-85
2023/06/15 05:06:28;;;;;;;9.38;5.50;;;20.50;95.50;;;;;;5104926;28;20051;-85
2023/06/15 05:08:53;;;;;;;10.63;5.65;;;20.60;95.50;;;;;;5100683;28;20039;-88
2023/06/15 05:11:19;;;;;;;11.13;5.40;;;20.60;95.50;;;;;;5103463;28;20028;-85
2023/06/15 05:13:45;;;;;;;9.68;5.00;;;20.70;95.50;;;;;;5112222;28;20045;-86
2023/06/15 05:16:10;;;;;;;7.75;5.53;;;20.80;95.40;;;;;;5113891;28;20028;-85
2023/06/15 05:18:36;;;;;;;8.98;5.65;;;20.90;95.30;;;;;;5105335;28;20040;-82
2023/06/15 05:21:01;;;;;;;9.13;5.18;;;20.90;95.10;;;;;;5107654;28;20048;-84
2023/06/15 05:23:28;;;;;;;10.50;5.43;;;21.00;94.90;;;;;;5106703;28;20040;-87
2023/06/15 05:25:54;;;;;;;9.07;5.55;;;21.10;94.80;;;;;;5099301;28;20035;-85
2023/06/15 05:28:20;;;;;;;12.20;5.60;;;21.20;94.70;;;;;;5109690;28;20133;-85
2023/06/15 05:30:46;;;;;;;8.82;4.97;;;21.40;94.50;;;;;;5103690;28;20032;-85
2023/06/15 05:33:11;;;;;;;7.82;4.40;;;21.60;94.10;;;;;;5097091;28;20067;-84
2023/06/15 05:35:37;;;;;;;9.55;5.05;;;21.80;93.70;;;;;;5096691;28;20092;-85
2023/06/15 05:38:03;;;;;;;12.65;5.20;;;22.10;93.30;;;;;;5098290;28;20063;-86
2023/06/15 05:40:28;;;;;;;8.68;5.55;;;22.50;92.80;;;;;;5097053;28;20028;-78
2023/06/15 05:42:54;;;;;;;8.70;4.68;;;22.80;92.20;;;;;;5095609;28;20072;-80
2023/06/15 05:45:20;;;;;;;7.78;4.40;;;23.10;91.90;;;;;;5099962;28;20032;-75
2023/06/15 05:47:46;;;;;;;10.40;4.88;;;23.30;91.40;;;;;;5094960;28;20043;-85
2023/06/15 05:50:11;;;;;;;10.65;4.60;;;23.70;90.80;;;;;;5095214;28;20032;-86
2023/06/15 05:52:37;;;;;;;8.43;4.28;;;24.00;90.20;;;;;;5095785;28;20389;-89
2023/06/15 05:55:03;;;;;;;9.43;4.03;;;24.10;90.00;;;;;;5095493;28;20051;-86
2023/06/15 05:57:29;;;;;;;11.27;4.40;;;24.30;88.90;;;;;;5095877;28;20040;-87
2023/06/15 05:59:54;;;;;;;9.48;4.55;;;24.50;87.60;;;;;;5098398;28;20420;-84
2023/06/15 06:02:20;;;;;;;10.20;3.90;;;24.70;87.20;;;;;;5103413;28;20436;-86
2023/06/15 06:04:46;;;;;;;7.38;3.97;;;24.70;86.40;;;;;;5102536;28;20028;-87
2023/06/15 06:07:12;;;;;;;9.65;3.67;;;24.80;85.50;;;;;;5100148;28;20036;-86
2023/06/15 06:09:38;;;;;;;19.10;5.00;;;24.80;84.90;;;;;;5098209;28;20041;-86
2023/06/15 06:12:05;;;;;;;11.40;3.47;;;24.90;84.80;;;;;;5094795;28;20102;-84
2023/06/15 06:14:30;;;;;;;16.02;4.18;;;25.00;84.40;;;;;;5093199;28;20428;-82
2023/06/15 06:16:56;;;;;;;12.38;4.25;;;25.10;84.00;;;;;;5095206;28;20047;-79
2023/06/15 06:19:23;;;;;;;15.93;3.80;;;25.40;82.90;;;;;;5113212;28;20087;-84
2023/06/15 06:21:49;;;;;;;8.98;3.67;;;25.80;81.80;;;;;;5127785;28;20035;-81
2023/06/15 06:24:15;;;;;;;11.23;3.40;;;26.00;80.50;;;;;;5107636;28;20108;-83
2023/06/15 06:26:41;;;;;;;9.75;3.42;;;26.20;79.90;;;;;;5134333;28;20051;-85
2023/06/15 06:29:06;;;;;;;8.90;3.08;;;26.40;79.30;;;;;;5097782;28;20092;-83
2023/06/15 06:31:32;;;;;;;12.93;3.80;;;26.50;79.00;;;;;;5096329;28;20512;-84
2023/06/15 06:33:58;;;;;;;15.18;3.40;;;26.60;78.90;;;;;;5098510;28;20039;-84
2023/06/15 06:36:25;;;;;;;15.95;3.25;;;26.60;78.10;;;;;;5099565;28;20043;-85
2023/06/15 06:38:51;;;;;;;11.23;3.40;;;26.50;78.30;;;;;;5103598;28;20044;-83
2023/06/15 06:41:17;;;;;;;10.75;3.55;;;26.30;78.20;;;;;;5099382;28;20040;-85
2023/06/15 06:43:42;;;;;;;9.00;3.22;;;26.30;78.40;;;;;;5097538;28;20043;-83
2023/06/15 06:46:09;;;;;;;10.55;3.80;;;26.10;78.40;;;;;;5095468;28;20024;-83
2023/06/15 06:48:35;;;;;;;11.35;3.72;;;26.00;78.80;;;;;;5093479;28;20515;-84
2023/06/15 06:51:00;;;;;;;10.73;3.58;;;25.90;79.00;;;;;;5094010;28;20032;-84
2023/06/15 06:53:26;;;;;;;12.90;3.53;;;25.90;79.30;;;;;;5093778;28;20386;-84
2023/06/15 06:55:52;;;;;;;10.10;3.28;;;26.00;79.00;;;;;;5093209;28;20127;-83
2023/06/15 06:58:17;;;;;;;11.98;3.55;;;26.10;78.50;;;;;;5093613;28;20032;-83
2023/06/15 07:00:43;;;;;;;8.55;3.38;;;26.20;78.10;;;;;;5094751;28;20483;-84
2023/06/15 07:03:09;;;;;;;10.45;3.75;;;26.50;77.80;;;;;;5094686;28;20081;-83
2023/06/15 07:05:34;;;;;;;11.70;3.38;;;26.60;77.00;;;;;;5094299;28;20105;-82
2023/06/15 07:08:00;;;;;;;9.13;3.25;;;26.50;76.70;;;;;;5093646;28;20024;-83
2023/06/15 07:10:25;;;;;;;13.48;3.75;;;26.50;76.80;;;;;;5093248;28;20394;-81
2023/06/15 07:12:55;;;;;;;18.80;3.90;;;26.50;76.90;;;;;;5092410;28;20521;-80
2023/06/15 07:15:21;;;;;;;15.23;3.75;;;26.60;76.70;;;;;;5092425;28;20032;-81
2023/06/15 07:17:47;;;;;;;10.25;3.08;;;26.60;76.50;;;;;;5091874;28;20067;-81
2023/06/15 07:20:13;;;;;;;10.02;2.88;;;26.60;76.30;;;;;;5092413;28;20070;-80
2023/06/15 07:22:38;;;;;;;10.75;3.40;;;26.50;76.20;;;;;;5092695;28;20032;-82
2023/06/15 07:25:04;;;;;;;11.73;2.78;;;26.30;76.40;;;;;;5091473;28;20032;-80
2023/06/15 07:27:30;;;;;;;10.23;2.75;;;26.10;76.40;;;;;;5094560;28;20067;-80
2023/06/15 07:29:56;;;;;;;10.90;3.45;;;26.10;76.60;;;;;;5097492;28;20493;-82
2023/06/15 07:32:21;;;;;;;13.20;3.70;;;26.00;76.60;;;;;;5093366;28;20040;-81
2023/06/15 07:34:47;;;;;;;7.95;3.13;;;25.90;76.80;;;;;;5101951;28;20036;-80
2023/06/15 07:37:13;;;;;;;9.07;2.78;;;25.70;76.60;;;;;;5097717;28;20456;-81
2023/06/15 07:39:38;;;;;;;6.88;2.60;;;25.60;76.80;;;;;;5100252;28;20096;-81
2023/06/15 07:42:06;;;;;;;8.90;2.70;;;25.40;76.80;;;;;;5097727;28;20036;-80
2023/06/15 07:44:31;;;;;;;7.68;2.70;;;25.30;77.40;;;;;;5094114;28;20377;-80
2023/06/15 07:46:57;;;;;;;5.22;2.55;;;25.30;77.30;;;;;;5093395;28;20036;-82
2023/06/15 07:49:23;;;;;;;7.82;2.70;;;25.30;77.40;;;;;;5094436;28;20024;-80
2023/06/15 07:51:48;;;;;;;7.90;2.90;;;25.30;77.10;;;;;;5093662;28;20136;-80
2023/06/15 07:54:14;;;;;;;8.27;2.40;;;25.40;77.10;;;;;;5097001;28;20042;-79
2023/06/15 07:56:40;;;;;;;13.93;3.35;;;25.50;77.10;;;;;;5097587;28;20111;-80
2023/06/15 07:59:06;;;;;;;22.67;4.03;;;25.70;77.10;;;;;;5096908;28;20039;-81
2023/06/15 08:01:32;;;;;;;13.23;2.83;;;25.80;77.00;;;;;;5097153;28;20451;-81
2023/06/15 08:03:57;;;;;;;9.52;2.83;;;25.80;76.60;;;;;;5096839;28;20051;-80
2023/06/15 08:06:23;;;;;;;5.88;2.45;;;25.90;76.60;;;;;;5096891;28;20066;-80
2023/06/15 08:08:49;;;;;;;8.27;2.60;;;25.90;76.10;;;;;;5095522;28;20123;-81
2023/06/15 08:11:16;;;;;;;15.38;3.15;;;25.90;76.30;;;;;;5097683;28;20043;-81
2023/06/15 08:13:42;;;;;;;5.63;2.13;;;26.00;76.20;;;;;;5097739;28;20553;-81
2023/06/15 08:16:08;;;;;;;6.55;2.30;;;26.10;75.40;;;;;;5096479;28;20059;-80
2023/06/15 08:18:34;;;;;;;9.73;2.95;;;26.20;75.20;;;;;;5093421;28;20110;-84
2023/06/15 08:21:00;;;;;;;8.07;2.60;;;26.20;75.10;;;;;;5079712;28;20036;-81
2023/06/15 08:23:26;;;;;;;7.07;2.42;;;26.20;74.50;;;;;;5098372;28;20390;-82
2023/06/15 08:25:52;;;;;;;8.30;2.20;;;26.20;74.20;;;;;;5096795;28;20062;-82
2023/06/15 08:28:21;;;;;;;27.13;3.63;;;26.10;73.40;;;;;;5096630;28;20036;-79
2023/06/15 08:30:48;;;;;;;24.05;3.80;;;26.10;73.40;;;;;;5097719;28;20474;-82
2023/06/15 08:33:14;;;;;;;10.35;2.50;;;26.10;73.10;;;;;;5112732;28;20074;-82
2023/06/15 08:35:40;;;;;;;10.00;2.97;;;26.10;72.80;;;;;;5102810;28;20051;-80
2023/06/15 08:38:07;;;;;;;7.28;2.55;;;26.00;72.90;;;;;;5096691;28;20081;-84
2023/06/15 08:40:32;;;;;;;7.05;2.47;;;26.00;73.30;;;;;;5079001;28;20054;-82
2023/06/15 08:42:59;;;;;;;12.02;3.00;;;26.00;73.10;;;;;;5098191;28;20054;-85
2023/06/15 08:45:39;;;;;;;4.35;1.80;;;25.90;73.10;;;;;;5097421;28;20393;-84
2023/06/15 08:48:07;;;;;;;7.05;2.55;;;25.80;72.80;;;;;;5096736;28;20047;-85
2023/06/15 08:50:36;;;;;;;7.75;2.65;;;25.70;73.50;;;;;;5102906;28;20043;-86
2023/06/15 08:53:02;;;;;;;8.02;2.08;;;25.70;74.00;;;;;;5100346;28;20071;-84
2023/06/15 08:55:28;;;;;;;7.70;2.65;;;25.70;74.40;;;;;;5095582;28;20099;-76
2023/06/15 08:57:54;;;;;;;13.45;2.88;;;25.70;74.60;;;;;;5094998;28;20108;-69
2023/06/15 09:00:20;;;;;;;11.50;2.92;;;25.70;75.00;;;;;;5094230;28;20036;-68
2023/06/15 09:02:46;;;;;;;5.85;2.00;;;25.70;74.60;;;;;;5094409;28;20135;-68
2023/06/15 09:05:12;;;;;;;4.22;1.88;;;25.70;74.30;;;;;;5092987;28;20032;-69
2023/06/15 09:07:38;;;;;;;8.80;2.33;;;25.70;73.60;;;;;;5094470;28;20120;-71
2023/06/15 09:10:14;;;;;;;13.05;3.13;;;25.60;73.50;;;;;;5094228;28;20123;-70
2023/06/15 09:12:43;;;;;;;12.68;2.53;;;25.60;73.90;;;;;;5094169;28;20044;-70
2023/06/15 09:15:09;;;;;;;7.97;3.00;;;25.70;74.00;;;;;;5094260;28;20028;-67
2023/06/15 09:17:40;;;;;;;7.20;2.13;;;25.70;73.80;;;;;;5094169;28;20113;-71
2023/06/15 09:20:07;;;;;;;12.73;2.60;;;25.60;73.40;;;;;;5094244;28;20028;-68
2023/06/15 09:22:40;;;;;;;7.75;1.90;;;25.70;73.80;;;;;;5094188;28;20405;-67
2023/06/15 09:25:17;;;;;;;7.70;2.17;;;25.70;73.10;;;;;;5094289;28;20486;-67
2023/06/15 09:28:04;;;;;;;4.35;1.90;;;25.70;73.60;;;;;;5093919;28;20505;-67
2023/06/15 09:30:38;;;;;;;9.68;2.97;;;25.70;72.80;;;;;;5093871;28;20111;-69
2023/06/15 09:33:14;;;;;;;6.93;2.45;;;25.70;73.40;;;;;;5093510;28;20050;-67
2023/06/15 09:36:00;;;;;;;6.72;3.05;;;25.70;72.60;;;;;;5075841;28;20033;-68
2023/06/15 09:38:28;;;;;;;9.38;2.60;;;25.80;73.00;;;;;;5093919;28;20119;-69
2023/06/15 09:40:54;;;;;;;9.10;2.22;;;25.80;73.00;;;;;;5093701;28;20035;-68
2023/06/15 09:43:20;;;;;;;13.85;2.10;;;25.90;73.40;;;;;;5074847;28;20084;-67
2023/06/15 09:45:53;;;;;;;3.97;1.95;;;25.90;72.50;;;;;;5093400;28;20043;-68
2023/06/15 09:48:20;;;;;;;4.93;2.03;;;25.80;71.90;;;;;;5093442;28;20073;-68
2023/06/15 09:50:52;;;;;;;5.10;1.75;;;25.80;72.60;;;;;;5092804;28;20044;-68
2023/06/15 09:53:18;;;;;;;7.45;2.20;;;25.80;72.70;;;;;;5093942;28;20086;-71
2023/06/15 09:55:48;;;;;;;12.18;2.53;;;25.80;73.00;;;;;;5093433;28;20505;-69
2023/06/15 09:58:13;;;;;;;9.88;3.42;;;25.70;72.70;;;;;;5093247;28;20039;-69
2023/06/15 10:00:40;;;;;;;6.72;2.10;;;25.70;73.20;;;;;;5093611;28;20040;-69
2023/06/15 10:03:09;;;;;;;6.57;2.30;;;25.80;73.20;;;;;;5093652;28;20115;-68
2023/06/15 10:05:43;;;;;;;7.28;2.20;;;25.90;73.20;;;;;;5092554;28;20032;-68
2023/06/15 10:08:11;;;;;;;4.88;1.90;;;25.90;72.90;;;;;;5093480;28;20042;-68
2023/06/15 10:10:41;;;;;;;4.20;1.80;;;26.00;72.60;;;;;;5095886;28;20100;-80
2023/06/15 10:13:12;;;;;;;5.97;2.15;;;26.00;71.80;;;;;;5099094;28;20127;-79
2023/06/15 10:15:38;;;;;;;5.18;2.60;;;26.00;71.70;;;;;;5094266;28;20029;-81
2023/06/15 10:18:07;;;;;;;4.40;2.00;;;26.00;71.70;;;;;;5094922;28;20043;-81
2023/06/15 10:20:33;;;;;;;9.57;2.00;;;26.00;71.70;;;;;;5094243;28;20020;-81
2023/06/15 10:23:02;;;;;;;4.43;1.80;;;26.00;71.80;;;;;;5093866;28;20066;-80
2023/06/15 10:25:30;;;;;;;8.00;2.42;;;26.10;71.60;;;;;;5093818;28;20118;-81
2023/06/15 10:27:56;;;;;;;5.15;1.88;;;26.10;71.40;;;;;;5093947;28;20178;-81
2023/06/15 10:30:57;;;;;;;3.55;1.70;;;26.10;71.20;;;;;;5094633;28;20028;-80
2023/06/15 10:33:37;;;;;;;5.72;1.70;;;26.10;70.00;;;;;;5069036;28;20052;-81
2023/06/15 10:36:19;;;;;;;4.07;1.90;;;26.10;69.60;;;;;;5093466;28;20362;-81
2023/06/15 10:39:20;;;;;;;17.33;2.75;;;26.10;69.40;;;;;;5097571;28;20123;-80
2023/06/15 10:41:45;;;;;;;3.17;1.75;;;26.10;68.90;;;;;;5101459;28;20036;-82
2023/06/15 10:44:17;;;;;;;5.60;2.00;;;26.20;69.60;;;;;;5093633;28;20028;-80
2023/06/15 10:46:43;;;;;;;4.25;1.88;;;26.20;69.80;;;;;;5093725;28;20114;-80
2023/06/15 10:49:10;;;;;;;4.47;1.73;;;26.30;69.70;;;;;;5093509;28;20040;-81
2023/06/15 10:51:40;;;;;;;4.35;1.63;;;26.30;69.50;;;;;;5093648;28;20044;-81
2023/06/15 10:54:20;;;;;;;5.35;1.92;;;26.30;69.60;;;;;;5093247;28;20024;-80
2023/06/15 10:56:57;;;;;;;4.05;1.85;;;26.40;69.20;;;;;;5053176;28;20406;-83
2023/06/15 10:59:44;;;;;;;4.07;1.75;;;26.40;69.10;;;;;;5068642;28;20037;-82
2023/06/15 11:02:28;;;;;;;3.92;1.95;;;26.50;68.10;;;;;;5053233;28;20033;-83
2023/06/15 11:05:10;;;;;;;4.75;1.65;;;26.70;68.60;;;;;;5053464;28;20471;-80
2023/06/15 11:07:41;;;;;;;3.72;1.77;;;26.70;68.30;;;;;;5053467;28;20098;-81
2023/06/15 11:10:17;;;;;;;3.28;1.70;;;26.80;68.20;;;;;;5052917;28;20506;-81
2023/06/15 11:12:44;;;;;;;6.95;2.15;;;26.90;67.50;;;;;;5053364;28;20049;-83
2023/06/15 11:15:13;;;;;;;3.60;1.50;;;26.90;67.60;;;;;;5053591;28;20036;-81
2023/06/15 11:17:57;;;;;;;4.18;2.20;;;27.00;66.60;;;;;;5053343;28;20108;-81
2023/06/15 11:20:47;;;;;;;3.95;1.70;;;27.10;66.00;;;;;;5053081;28;20086;-80
2023/06/15 11:23:16;;;;;;;3.63;1.40;;;27.20;66.20;;;;;;5052713;28;20071;-80
2023/06/15 11:25:54;;;;;;;2.95;1.48;;;27.40;65.40;;;;;;5052898;28;20083;-81
2023/06/15 11:28:22;;;;;;;3.00;1.73;;;27.40;64.70;;;;;;5053072;28;20052;-82
2023/06/15 11:30:52;;;;;;;3.45;1.48;;;27.40;65.00;;;;;;5052875;28;20037;-81
2023/06/15 11:33:31;;;;;;;3.70;1.70;;;27.30;64.80;;;;;;5051512;28;20564;-82
2023/06/15 11:36:06;;;;;;;4.97;1.80;;;27.40;64.60;;;;;;5052734;28;20501;-80
2023/06/15 11:38:32;;;;;;;2.33;1.20;;;27.50;64.50;;;;;;5053043;28;20029;-81
2023/06/15 11:41:04;;;;;;;3.22;1.70;;;27.50;64.30;;;;;;5053307;28;20041;-84
2023/06/15 11:43:37;;;;;;;4.80;2.00;;;27.60;64.00;;;;;;5068753;28;20159;-82
2023/06/15 11:46:03;;;;;;;4.00;2.03;;;27.70;64.00;;;;;;5054131;28;20025;-81
2023/06/15 11:48:29;;;;;;;3.22;1.83;;;27.90;63.90;;;;;;5052609;28;20107;-82
2023/06/15 11:50:56;;;;;;;3.53;1.70;;;28.00;63.40;;;;;;5052794;28;20483;-80
2023/06/15 11:53:22;;;;;;;2.67;1.42;;;28.10;63.60;;;;;;5052794;28;20154;-81
2023/06/15 11:55:47;;;;;;;3.65;1.80;;;28.10;63.50;;;;;;5080910;28;20474;-80
2023/06/15 11:58:13;;;;;;;6.32;2.10;;;28.10;63.70;;;;;;5092602;28;20039;-81
2023/06/15 12:00:40;;;;;;;4.88;2.22;;;28.10;63.60;;;;;;5092396;28;20108;-79
2023/06/15 12:03:10;;;;;;;4.97;1.77;;;28.20;63.40;;;;;;5092523;28;20138;-81
2023/06/15 12:05:35;;;;;;;3.00;1.63;;;28.20;63.60;;;;;;5092855;28;20031;-81
2023/06/15 12:08:04;;;;;;;2.63;1.75;;;28.10;63.00;;;;;;5093707;28;20035;-82
2023/06/15 12:10:35;;;;;;;6.35;1.58;;;28.00;63.10;;;;;;5094769;28;20081;-82
2023/06/15 12:13:00;;;;;;;2.05;1.40;;;28.00;62.80;;;;;;5092552;28;20512;-83
2023/06/15 12:15:28;;;;;;;3.47;1.40;;;27.90;62.80;;;;;;5092489;28;20036;-83
2023/06/15 12:17:55;;;;;;;3.55;1.88;;;27.90;62.90;;;;;;5092347;28;20043;-82
2023/06/15 12:20:27;;;;;;;3.65;1.80;;;27.80;63.00;;;;;;5092522;28;20028;-82
2023/06/15 12:22:53;;;;;;;3.33;1.90;;;27.80;63.80;;;;;;5093237;28;20040;-82
2023/06/15 12:25:18;;;;;;;3.65;1.65;;;27.80;64.00;;;;;;5093156;28;20024;-81
2023/06/15 12:27:49;;;;;;;3.50;1.42;;;27.80;64.30;;;;;;5093074;28;20367;-80
2023/06/15 12:30:15;;;;;;;3.95;1.70;;;27.80;64.30;;;;;;5092556;28;20059;-83
2023/06/15 12:32:46;;;;;;;3.13;1.70;;;27.70;64.40;;;;;;5092409;28;20040;-80
2023/06/15 12:35:44;;;;;;;5.93;2.05;;;27.70;64.70;;;;;;5092844;28;20058;-81
2023/06/15 12:38:11;;;;;;;5.90;2.22;;;27.70;64.90;;;;;;5048649;28;20089;-80
2023/06/15 12:40:41;;;;;;;3.25;1.90;;;27.70;65.30;;;;;;5096330;28;20067;-81
2023/06/15 12:43:07;;;;;;;3.50;1.80;;;27.80;65.20;;;;;;5096473;28;20036;-82
2023/06/15 12:45:33;;;;;;;5.57;1.70;;;27.70;65.20;;;;;;5109728;28;20060;-81
2023/06/15 12:48:00;;;;;;;4.03;1.60;;;27.80;65.30;;;;;;5101712;28;20040;-82